createdAt,value
2017-10-13T00:00:47.856Z,0.00
2017-10-13T00:01:47.841Z,0.00
2017-10-13T00:02:47.827Z,0.00
2017-10-13T00:03:47.810Z,0.00
2017-10-13T00:04:47.797Z,0.00
2017-10-13T00:05:47.782Z,0.00
2017-10-13T00:06:47.767Z,0.00
2017-10-13T00:07:47.751Z,0.00
2017-10-13T00:08:47.736Z,0.00
2017-10-13T00:09:47.720Z,0.00
2017-10-13T00:10:47.706Z,0.00
2017-10-13T00:11:47.691Z,0.00
2017-10-13T00:12:47.677Z,0.00
2017-10-13T00:13:47.661Z,0.00
2017-10-13T00:14:47.647Z,0.00
2017-10-13T00:15:47.631Z,0.00
2017-10-13T00:16:47.622Z,0.00
2017-10-13T00:17:47.602Z,0.00
2017-10-13T00:18:47.587Z,0.00
2017-10-13T00:19:47.572Z,0.00
2017-10-13T00:20:47.557Z,0.00
2017-10-13T00:21:47.542Z,0.00
2017-10-13T00:22:47.527Z,0.00
2017-10-13T00:23:47.512Z,0.00
2017-10-13T00:24:47.497Z,0.00
2017-10-13T00:25:47.482Z,0.00
2017-10-13T00:26:47.467Z,0.00
2017-10-13T00:27:47.451Z,0.00
2017-10-13T00:28:47.437Z,0.00
2017-10-13T00:29:47.422Z,0.00
2017-10-13T00:30:47.407Z,0.00
2017-10-13T00:31:47.391Z,0.00
2017-10-13T00:32:47.376Z,0.00
2017-10-13T00:33:47.361Z,0.00
2017-10-13T00:34:47.347Z,0.00
2017-10-13T00:35:47.332Z,0.00
2017-10-13T00:36:47.317Z,0.00
2017-10-13T00:37:47.301Z,0.00
2017-10-13T00:38:47.286Z,0.00
2017-10-13T00:39:47.271Z,0.00
2017-10-13T00:40:47.255Z,0.00
2017-10-13T00:41:47.241Z,0.00
2017-10-13T00:42:47.226Z,0.00
2017-10-13T00:43:47.209Z,0.00
2017-10-13T00:44:47.200Z,0.00
2017-10-13T00:45:47.180Z,0.00
2017-10-13T00:46:47.165Z,0.00
2017-10-13T00:47:47.148Z,0.00
2017-10-13T00:48:47.135Z,0.00
2017-10-13T00:49:47.119Z,0.00
2017-10-13T00:50:47.104Z,0.00
2017-10-13T00:51:47.088Z,0.00
2017-10-13T00:52:47.073Z,0.00
2017-10-13T00:53:47.058Z,0.00
2017-10-13T00:54:47.042Z,0.00
2017-10-13T00:55:47.026Z,0.00
2017-10-13T00:56:47.011Z,0.00
2017-10-13T00:57:46.996Z,0.00
2017-10-13T00:58:46.997Z,0.00
2017-10-13T00:59:46.965Z,0.00
2017-10-13T01:00:46.950Z,0.00
2017-10-13T01:01:46.937Z,0.00
2017-10-13T01:02:46.920Z,0.00
2017-10-13T01:03:46.904Z,0.00
2017-10-13T01:04:46.888Z,0.00
2017-10-13T01:05:46.873Z,0.00
2017-10-13T01:06:46.858Z,0.00
2017-10-13T01:07:46.842Z,0.00
2017-10-13T01:08:46.827Z,0.00
2017-10-13T01:09:46.812Z,0.00
2017-10-13T01:10:46.797Z,0.00
2017-10-13T01:11:46.781Z,0.00
2017-10-13T01:12:46.765Z,0.00
2017-10-13T01:13:46.751Z,0.00
2017-10-13T01:14:46.735Z,0.00
2017-10-13T01:15:46.720Z,0.00
2017-10-13T01:16:46.704Z,0.00
2017-10-13T01:17:46.688Z,0.00
2017-10-13T01:18:46.674Z,0.00
2017-10-13T01:19:46.657Z,0.00
2017-10-13T01:20:46.643Z,0.00
2017-10-13T01:21:46.628Z,0.00
2017-10-13T01:22:46.612Z,0.00
2017-10-13T01:23:46.596Z,0.00
2017-10-13T01:24:46.581Z,0.00
2017-10-13T01:25:46.567Z,0.00
2017-10-13T01:26:46.551Z,0.00
2017-10-13T01:27:46.536Z,0.00
2017-10-13T01:28:46.520Z,0.00
2017-10-13T01:29:46.505Z,0.00
2017-10-13T01:30:46.490Z,0.00
2017-10-13T01:31:46.474Z,0.00
2017-10-13T01:32:46.458Z,0.00
2017-10-13T01:33:46.444Z,0.00
2017-10-13T01:34:46.429Z,0.00
2017-10-13T01:35:46.413Z,0.00
2017-10-13T01:36:46.397Z,0.00
2017-10-13T01:37:46.382Z,0.00
2017-10-13T01:38:46.368Z,0.00
2017-10-13T01:39:46.355Z,0.00
2017-10-13T01:40:46.337Z,0.00
2017-10-13T01:41:46.321Z,0.00
2017-10-13T01:42:46.307Z,0.00
2017-10-13T01:43:46.291Z,0.00
2017-10-13T01:44:46.276Z,0.00
2017-10-13T01:45:46.261Z,0.00
2017-10-13T01:46:46.246Z,0.00
2017-10-13T01:47:46.230Z,0.00
2017-10-13T01:48:46.214Z,0.00
2017-10-13T01:49:46.199Z,0.00
2017-10-13T01:50:46.185Z,0.00
2017-10-13T01:51:46.169Z,0.00
2017-10-13T01:52:46.162Z,0.00
2017-10-13T01:53:46.139Z,0.00
2017-10-13T01:54:46.122Z,0.00
2017-10-13T01:55:46.107Z,0.00
2017-10-13T01:56:46.093Z,0.00
2017-10-13T01:57:46.078Z,0.00
2017-10-13T01:58:46.072Z,0.00
2017-10-13T01:59:46.047Z,0.00
2017-10-13T02:00:46.032Z,0.00
2017-10-13T02:01:46.017Z,0.00
2017-10-13T02:02:46.003Z,0.00
2017-10-13T02:03:45.986Z,0.00
2017-10-13T02:04:45.971Z,0.00
2017-10-13T02:05:45.956Z,0.00
2017-10-13T02:06:45.941Z,0.00
2017-10-13T02:07:45.925Z,0.00
2017-10-13T02:08:45.910Z,0.00
2017-10-13T02:09:45.895Z,0.00
2017-10-13T02:10:45.880Z,0.00
2017-10-13T02:11:45.864Z,0.00
2017-10-13T02:12:45.848Z,0.00
2017-10-13T02:13:45.835Z,0.00
2017-10-13T02:14:45.819Z,0.00
2017-10-13T02:15:45.802Z,0.00
2017-10-13T02:16:45.787Z,0.00
2017-10-13T02:17:45.771Z,0.00
2017-10-13T02:18:45.758Z,0.00
2017-10-13T02:19:45.742Z,0.00
2017-10-13T02:20:45.729Z,0.00
2017-10-13T02:21:45.711Z,0.00
2017-10-13T02:22:45.696Z,0.00
2017-10-13T02:23:45.680Z,0.00
2017-10-13T02:24:45.665Z,0.00
2017-10-13T02:25:45.650Z,0.00
2017-10-13T02:26:45.635Z,0.00
2017-10-13T02:27:45.619Z,0.00
2017-10-13T02:28:45.604Z,0.00
2017-10-13T02:29:45.588Z,0.00
2017-10-13T02:30:45.573Z,0.00
2017-10-13T02:31:45.557Z,0.00
2017-10-13T02:32:45.542Z,0.00
2017-10-13T02:33:45.527Z,0.00
2017-10-13T02:34:45.512Z,0.00
2017-10-13T02:35:45.496Z,0.00
2017-10-13T02:36:45.479Z,0.00
2017-10-13T02:37:45.465Z,0.00
2017-10-13T02:38:45.451Z,0.00
2017-10-13T02:39:45.435Z,0.00
2017-10-13T02:40:45.419Z,0.00
2017-10-13T02:41:45.404Z,0.00
2017-10-13T02:42:45.389Z,0.00
2017-10-13T02:43:45.373Z,0.00
2017-10-13T02:44:45.358Z,0.00
2017-10-13T02:45:45.342Z,0.00
2017-10-13T02:46:45.327Z,0.00
2017-10-13T02:47:45.312Z,0.00
2017-10-13T02:48:45.353Z,0.00
2017-10-13T02:49:45.281Z,0.00
2017-10-13T02:50:45.266Z,0.00
2017-10-13T02:51:45.250Z,0.00
2017-10-13T02:52:45.236Z,0.00
2017-10-13T02:53:45.221Z,0.00
2017-10-13T02:54:45.209Z,0.00
2017-10-13T02:55:45.188Z,0.00
2017-10-13T02:56:45.173Z,0.00
2017-10-13T02:57:45.158Z,0.00
2017-10-13T02:58:45.143Z,0.00
2017-10-13T02:59:45.127Z,0.00
2017-10-13T03:00:45.115Z,0.00
2017-10-13T03:01:45.095Z,0.00
2017-10-13T03:02:45.080Z,0.00
2017-10-13T03:03:45.064Z,0.00
2017-10-13T03:04:45.049Z,0.00
2017-10-13T03:05:45.034Z,0.00
2017-10-13T03:06:45.019Z,0.00
2017-10-13T03:07:45.008Z,0.00
2017-10-13T03:08:44.987Z,0.00
2017-10-13T03:09:44.971Z,0.00
2017-10-13T03:10:44.957Z,0.00
2017-10-13T03:11:44.940Z,0.00
2017-10-13T03:12:44.925Z,0.00
2017-10-13T03:13:44.911Z,0.00
2017-10-13T03:14:44.893Z,0.00
2017-10-13T03:15:44.877Z,0.00
2017-10-13T03:16:44.863Z,0.00
2017-10-13T03:17:44.848Z,0.00
2017-10-13T03:18:44.832Z,0.00
2017-10-13T03:19:44.815Z,0.00
2017-10-13T03:20:44.800Z,0.00
2017-10-13T03:21:44.785Z,0.00
2017-10-13T03:22:44.769Z,0.00
2017-10-13T03:23:44.753Z,0.00
2017-10-13T03:24:44.738Z,0.00
2017-10-13T03:25:44.723Z,0.00
2017-10-13T03:26:44.707Z,0.00
2017-10-13T03:27:44.690Z,0.00
2017-10-13T03:28:44.675Z,0.00
2017-10-13T03:29:44.660Z,0.00
2017-10-13T03:30:44.648Z,0.00
2017-10-13T03:31:44.628Z,0.00
2017-10-13T03:32:44.613Z,0.00
2017-10-13T03:33:44.597Z,0.00
2017-10-13T03:34:44.582Z,0.00
2017-10-13T03:35:44.566Z,0.00
2017-10-13T03:36:44.551Z,0.00
2017-10-13T03:37:44.535Z,0.00
2017-10-13T03:38:44.519Z,0.00
2017-10-13T03:39:44.503Z,0.00
2017-10-13T03:40:44.489Z,0.00
2017-10-13T03:41:44.473Z,0.00
2017-10-13T03:42:44.458Z,0.00
2017-10-13T03:43:44.442Z,0.00
2017-10-13T03:44:44.426Z,0.00
2017-10-13T03:45:44.410Z,0.00
2017-10-13T03:46:44.395Z,0.00
2017-10-13T03:47:44.379Z,0.00
2017-10-13T03:48:44.363Z,0.00
2017-10-13T03:49:44.349Z,0.00
2017-10-13T03:50:44.332Z,0.00
2017-10-13T03:51:44.315Z,0.00
2017-10-13T03:52:44.300Z,0.00
2017-10-13T03:53:44.286Z,0.00
2017-10-13T03:54:44.271Z,0.00
2017-10-13T03:55:44.254Z,0.00
2017-10-13T03:56:44.240Z,0.00
2017-10-13T03:57:44.224Z,0.00
2017-10-13T03:58:44.208Z,0.00
2017-10-13T03:59:44.193Z,0.00
2017-10-13T04:00:44.183Z,0.00
2017-10-13T04:01:44.162Z,0.00
2017-10-13T04:02:44.153Z,0.00
2017-10-13T04:03:44.130Z,0.00
2017-10-13T04:04:44.115Z,0.00
2017-10-13T04:05:44.099Z,0.00
2017-10-13T04:06:44.089Z,0.00
2017-10-13T04:07:44.069Z,0.00
2017-10-13T04:08:44.054Z,0.00
2017-10-13T04:09:44.038Z,0.00
2017-10-13T04:10:44.025Z,0.00
2017-10-13T04:11:44.007Z,0.00
2017-10-13T04:12:43.991Z,0.00
2017-10-13T04:13:43.976Z,0.00
2017-10-13T04:14:43.962Z,0.00
2017-10-13T04:15:43.945Z,0.00
2017-10-13T04:16:43.930Z,0.00
2017-10-13T04:17:43.914Z,0.00
2017-10-13T04:18:43.899Z,0.00
2017-10-13T04:19:43.885Z,0.00
2017-10-13T04:20:43.869Z,0.00
2017-10-13T04:21:43.853Z,0.00
2017-10-13T04:22:43.837Z,0.00
2017-10-13T04:23:43.830Z,0.00
2017-10-13T04:24:43.808Z,0.00
2017-10-13T04:25:43.791Z,0.00
2017-10-13T04:26:43.777Z,0.00
2017-10-13T04:27:43.760Z,0.00
2017-10-13T04:28:43.745Z,0.00
2017-10-13T04:29:43.729Z,0.00
2017-10-13T04:30:43.715Z,0.00
2017-10-13T04:31:43.698Z,0.00
2017-10-13T04:32:43.684Z,0.00
2017-10-13T04:33:43.669Z,0.00
2017-10-13T04:35:43.638Z,0.00
2017-10-13T04:36:43.622Z,0.00
2017-10-13T04:37:43.607Z,0.00
2017-10-13T04:38:43.592Z,0.00
2017-10-13T04:39:43.577Z,0.00
2017-10-13T04:40:43.561Z,0.00
2017-10-13T04:41:43.546Z,0.00
2017-10-13T04:42:43.531Z,0.00
2017-10-13T04:43:43.514Z,0.00
2017-10-13T04:44:43.500Z,0.00
2017-10-13T04:45:43.484Z,0.00
2017-10-13T04:46:43.471Z,0.00
2017-10-13T04:47:43.453Z,0.00
2017-10-13T04:48:43.443Z,0.00
2017-10-13T04:49:43.423Z,0.00
2017-10-13T04:50:43.409Z,0.00
2017-10-13T04:51:43.392Z,0.00
2017-10-13T04:52:43.378Z,0.00
2017-10-13T04:53:43.364Z,0.00
2017-10-13T04:54:43.347Z,0.00
2017-10-13T04:55:43.334Z,0.00
2017-10-13T04:56:43.317Z,0.00
2017-10-13T04:57:43.302Z,0.00
2017-10-13T04:58:43.289Z,0.00
2017-10-13T04:59:43.271Z,0.00
2017-10-13T05:00:43.256Z,0.00
2017-10-13T05:01:43.241Z,0.00
2017-10-13T05:02:43.226Z,0.00
2017-10-13T05:03:43.211Z,0.00
2017-10-13T05:04:43.196Z,12.00
2017-10-13T05:05:43.180Z,12.00
2017-10-13T05:06:43.165Z,12.00
2017-10-13T05:07:43.149Z,12.00
2017-10-13T05:08:43.134Z,12.00
2017-10-13T05:09:43.120Z,12.00
2017-10-13T05:10:43.105Z,12.00
2017-10-13T05:11:43.089Z,12.00
2017-10-13T05:12:43.074Z,12.00
2017-10-13T05:13:43.059Z,0.00
2017-10-13T05:14:43.044Z,0.00
2017-10-13T05:15:43.028Z,0.00
2017-10-13T05:16:43.013Z,0.00
2017-10-13T05:17:42.998Z,0.00
2017-10-13T05:18:42.984Z,0.00
2017-10-13T05:19:42.968Z,0.00
2017-10-13T05:20:42.953Z,0.00
2017-10-13T05:21:42.938Z,12.00
2017-10-13T05:22:42.922Z,0.00
2017-10-13T05:23:42.907Z,0.00
2017-10-13T05:24:42.910Z,0.00
2017-10-13T05:25:42.878Z,0.00
2017-10-13T05:26:42.862Z,0.00
2017-10-13T05:27:42.849Z,76.00
2017-10-13T05:28:42.835Z,84.00
2017-10-13T05:29:42.816Z,84.00
2017-10-13T05:30:42.802Z,84.00
2017-10-13T05:31:42.786Z,84.00
2017-10-13T05:32:42.771Z,84.00
2017-10-13T05:33:42.757Z,80.00
2017-10-13T05:34:42.741Z,4.00
2017-10-13T05:35:42.727Z,0.00
2017-10-13T05:36:42.711Z,4.00
2017-10-13T05:37:42.695Z,4.00
2017-10-13T05:38:42.680Z,8.00
2017-10-13T05:39:42.665Z,4.00
2017-10-13T05:40:42.650Z,8.00
2017-10-13T05:41:42.635Z,8.00
2017-10-13T05:42:42.620Z,8.00
2017-10-13T05:43:42.604Z,12.00
2017-10-13T05:44:42.590Z,12.00
2017-10-13T05:45:42.573Z,16.00
2017-10-13T05:46:42.559Z,16.00
2017-10-13T05:47:42.543Z,16.00
2017-10-13T05:48:42.528Z,16.00
2017-10-13T05:49:42.513Z,20.00
2017-10-13T05:50:42.498Z,20.00
2017-10-13T05:51:42.482Z,24.00
2017-10-13T05:52:42.467Z,24.00
2017-10-13T05:53:42.452Z,24.00
2017-10-13T05:54:42.436Z,28.00
2017-10-13T05:55:42.420Z,32.00
2017-10-13T05:56:42.406Z,40.00
2017-10-13T05:57:42.391Z,48.00
2017-10-13T05:58:42.375Z,52.00
2017-10-13T05:59:42.360Z,60.00
2017-10-13T06:00:42.345Z,64.00
2017-10-13T06:01:42.330Z,72.00
2017-10-13T06:02:42.315Z,84.00
2017-10-13T06:03:42.299Z,88.00
2017-10-13T06:04:42.284Z,88.00
2017-10-13T06:05:42.268Z,92.00
2017-10-13T06:06:42.253Z,92.00
2017-10-13T06:07:42.241Z,104.00
2017-10-13T06:08:42.222Z,108.00
2017-10-13T06:09:42.212Z,116.00
2017-10-13T06:10:42.192Z,128.00
2017-10-13T06:11:42.175Z,140.00
2017-10-13T06:12:42.161Z,132.00
2017-10-13T06:13:42.146Z,140.00
2017-10-13T06:14:42.130Z,156.00
2017-10-13T06:15:42.114Z,176.00
2017-10-13T06:16:42.100Z,200.00
2017-10-13T06:17:42.084Z,228.00
2017-10-13T06:18:42.071Z,244.00
2017-10-13T06:19:42.053Z,252.00
2017-10-13T06:20:42.042Z,260.00
2017-10-13T06:21:42.022Z,304.00
2017-10-13T06:22:42.008Z,316.00
2017-10-13T06:23:41.990Z,336.00
2017-10-13T06:24:41.975Z,344.00
2017-10-13T06:25:41.961Z,364.00
2017-10-13T06:26:41.946Z,368.00
2017-10-13T06:27:41.929Z,400.00
2017-10-13T06:28:41.914Z,412.00
2017-10-13T06:29:41.900Z,436.00
2017-10-13T06:30:41.884Z,480.00
2017-10-13T06:31:41.881Z,524.00
2017-10-13T06:32:41.853Z,548.00
2017-10-13T06:33:41.839Z,624.00
2017-10-13T06:34:41.824Z,612.00
2017-10-13T06:35:41.807Z,548.00
2017-10-13T06:36:41.793Z,624.00
2017-10-13T06:37:41.777Z,732.00
2017-10-13T06:38:41.763Z,636.00
2017-10-13T06:39:41.755Z,600.00
2017-10-13T06:40:41.731Z,620.00
2017-10-13T06:41:41.722Z,652.00
2017-10-13T06:42:41.704Z,704.00
2017-10-13T06:43:41.685Z,808.00
2017-10-13T06:44:41.670Z,856.00
2017-10-13T06:45:41.655Z,860.00
2017-10-13T06:46:41.644Z,832.00
2017-10-13T06:47:41.624Z,852.00
2017-10-13T06:48:41.609Z,892.00
2017-10-13T06:49:41.593Z,848.00
2017-10-13T06:50:41.578Z,784.00
2017-10-13T06:51:41.563Z,808.00
2017-10-13T06:52:41.548Z,832.00
2017-10-13T06:53:41.535Z,548.00
2017-10-13T06:54:41.524Z,624.00
2017-10-13T06:55:41.501Z,664.00
2017-10-13T06:56:41.485Z,608.00
2017-10-13T06:57:41.471Z,536.00
2017-10-13T06:58:41.456Z,460.00
2017-10-13T06:59:41.439Z,504.00
2017-10-13T07:00:41.424Z,692.00
2017-10-13T07:01:41.410Z,588.00
2017-10-13T07:02:41.395Z,524.00
2017-10-13T07:03:41.379Z,536.00
2017-10-13T07:04:41.364Z,552.00
2017-10-13T07:05:41.348Z,520.00
2017-10-13T07:06:41.334Z,600.00
2017-10-13T07:07:41.319Z,632.00
2017-10-13T07:08:41.303Z,676.00
2017-10-13T07:09:41.289Z,760.00
2017-10-13T07:10:41.273Z,840.00
2017-10-13T07:11:41.257Z,772.00
2017-10-13T07:12:41.243Z,720.00
2017-10-13T07:13:41.228Z,852.00
2017-10-13T07:14:41.213Z,960.00
2017-10-13T07:15:41.197Z,996.00
2017-10-13T07:16:41.182Z,1116.00
2017-10-13T07:17:41.180Z,1160.00
2017-10-13T07:18:41.152Z,1124.00
2017-10-13T07:19:41.340Z,916.00
2017-10-13T07:20:41.122Z,1076.00
2017-10-13T07:21:41.108Z,1072.00
2017-10-13T07:22:41.093Z,1076.00
2017-10-13T07:23:41.078Z,1140.00
2017-10-13T07:24:41.063Z,1168.00
2017-10-13T07:25:41.048Z,888.00
2017-10-13T07:26:41.033Z,1444.00
2017-10-13T07:27:41.018Z,1216.00
2017-10-13T07:28:41.004Z,1520.00
2017-10-13T07:29:40.989Z,1748.00
2017-10-13T07:30:40.976Z,1432.00
2017-10-13T07:31:40.959Z,1584.00
2017-10-13T07:32:40.946Z,1208.00
2017-10-13T07:33:40.930Z,1576.00
2017-10-13T07:34:40.916Z,1548.00
2017-10-13T07:35:40.901Z,2004.00
2017-10-13T07:36:40.887Z,2060.00
2017-10-13T07:37:40.872Z,1696.00
2017-10-13T07:38:40.857Z,3004.00
2017-10-13T07:39:40.843Z,2000.00
2017-10-13T07:41:40.814Z,1276.00
2017-10-13T07:42:40.804Z,2492.00
2017-10-13T07:43:40.785Z,2884.00
2017-10-13T07:44:40.775Z,2116.00
2017-10-13T07:45:40.759Z,2180.00
2017-10-13T07:46:40.742Z,1744.00
2017-10-13T07:47:40.730Z,1564.00
2017-10-13T07:48:40.712Z,1880.00
2017-10-13T07:49:40.699Z,1476.00
2017-10-13T07:50:40.684Z,1200.00
2017-10-13T07:51:40.669Z,1088.00
2017-10-13T07:52:40.660Z,2896.00
2017-10-13T07:53:40.641Z,5776.00
2017-10-13T07:54:40.626Z,3508.00
2017-10-13T07:55:40.611Z,2836.00
2017-10-13T07:56:40.597Z,2800.00
2017-10-13T07:57:40.583Z,2356.00
2017-10-13T07:58:40.569Z,2092.00
2017-10-13T07:59:40.554Z,2436.00
2017-10-13T08:00:40.590Z,3564.00
2017-10-13T08:01:40.526Z,3516.00
2017-10-13T08:02:40.511Z,3412.00
2017-10-13T08:03:40.496Z,4160.00
2017-10-13T08:04:40.483Z,5624.00
2017-10-13T08:05:40.518Z,3272.00
2017-10-13T08:06:40.454Z,4420.00
2017-10-13T08:07:40.439Z,3060.00
2017-10-13T08:08:40.425Z,3224.00
2017-10-13T08:09:40.410Z,2952.00
2017-10-13T08:11:40.382Z,2864.00
2017-10-13T08:12:40.368Z,2464.00
2017-10-13T08:13:40.354Z,2928.00
2017-10-13T08:14:40.340Z,3140.00
2017-10-13T08:15:40.325Z,2892.00
2017-10-13T08:16:40.311Z,2928.00
2017-10-13T08:17:40.297Z,2916.00
2017-10-13T08:18:40.282Z,3064.00
2017-10-13T08:19:40.266Z,3068.00
2017-10-13T08:20:40.253Z,3104.00
2017-10-13T08:21:40.239Z,2988.00
2017-10-13T08:22:40.225Z,3144.00
2017-10-13T08:23:40.210Z,3452.00
2017-10-13T08:24:40.197Z,3520.00
2017-10-13T08:25:40.182Z,4036.00
2017-10-13T08:26:40.168Z,4892.00
2017-10-13T08:27:40.153Z,4796.00
2017-10-13T08:28:40.139Z,4112.00
2017-10-13T08:29:40.125Z,4172.00
2017-10-13T08:30:40.111Z,4564.00
2017-10-13T08:31:40.095Z,3944.00
2017-10-13T08:32:40.082Z,4672.00
2017-10-13T08:33:40.068Z,3028.00
2017-10-13T08:34:40.054Z,3696.00
2017-10-13T08:35:40.039Z,3984.00
2017-10-13T08:36:40.031Z,3816.00
2017-10-13T08:37:40.012Z,3944.00
2017-10-13T08:38:39.998Z,3932.00
2017-10-13T08:39:39.982Z,4228.00
2017-10-13T08:40:39.967Z,4452.00
2017-10-13T08:41:39.962Z,4316.00
2017-10-13T08:42:39.940Z,4392.00
2017-10-13T08:43:39.926Z,4660.00
2017-10-13T08:44:39.912Z,4596.00
2017-10-13T08:45:39.898Z,4408.00
2017-10-13T08:46:39.884Z,4344.00
2017-10-13T08:47:39.870Z,4248.00
2017-10-13T08:48:39.856Z,5764.00
2017-10-13T08:49:39.842Z,4368.00
2017-10-13T08:50:39.828Z,4584.00
2017-10-13T08:51:39.812Z,5528.00
2017-10-13T08:52:39.800Z,4252.00
2017-10-13T08:53:39.786Z,5456.00
2017-10-13T08:54:39.773Z,5556.00
2017-10-13T08:55:39.758Z,7824.00
2017-10-13T08:56:39.744Z,5760.00
2017-10-13T08:57:39.731Z,5976.00
2017-10-13T08:58:39.717Z,5232.00
2017-10-13T08:59:39.702Z,5372.00
2017-10-13T09:00:39.688Z,5044.00
2017-10-13T09:01:39.683Z,5056.00
2017-10-13T09:02:39.661Z,5156.00
2017-10-13T09:03:39.647Z,4796.00
2017-10-13T09:04:39.636Z,4872.00
2017-10-13T09:05:39.620Z,4532.00
2017-10-13T09:06:39.605Z,5560.00
2017-10-13T09:07:39.592Z,5144.00
2017-10-13T09:08:39.581Z,5604.00
2017-10-13T09:09:39.565Z,5864.00
2017-10-13T09:10:39.552Z,6176.00
2017-10-13T09:11:39.537Z,7520.00
2017-10-13T09:12:39.524Z,6980.00
2017-10-13T09:13:39.510Z,5864.00
2017-10-13T09:14:39.496Z,5260.00
2017-10-13T09:15:39.482Z,6880.00
2017-10-13T09:16:39.470Z,6528.00
2017-10-13T09:17:39.456Z,6964.00
2017-10-13T09:18:39.442Z,7236.00
2017-10-13T09:19:39.429Z,7628.00
2017-10-13T09:20:39.415Z,7908.00
2017-10-13T09:21:39.402Z,8108.00
2017-10-13T09:22:39.388Z,8456.00
2017-10-13T09:23:39.374Z,9060.00
2017-10-13T09:24:39.361Z,9172.00
2017-10-13T09:25:39.348Z,9920.00
2017-10-13T09:26:39.335Z,9608.00
2017-10-13T09:27:39.322Z,10456.00
2017-10-13T09:28:39.308Z,11848.00
2017-10-13T09:29:39.296Z,7132.00
2017-10-13T09:30:39.288Z,31360.00
2017-10-13T09:31:39.268Z,27872.00
2017-10-13T09:32:39.256Z,36000.00
2017-10-13T09:33:39.243Z,7852.00
2017-10-13T09:34:39.231Z,45920.00
2017-10-13T09:35:39.219Z,48064.00
2017-10-13T09:36:39.205Z,43104.00
2017-10-13T09:37:39.192Z,44896.00
2017-10-13T09:38:39.236Z,44640.00
2017-10-13T09:39:39.166Z,47744.00
2017-10-13T09:40:39.157Z,47680.00
2017-10-13T09:41:39.141Z,53056.00
2017-10-13T09:42:39.130Z,49856.00
2017-10-13T09:43:39.115Z,49472.00
2017-10-13T09:44:39.104Z,49248.00
2017-10-13T09:45:39.095Z,49888.00
2017-10-13T09:46:39.079Z,48960.00
2017-10-13T09:47:39.067Z,48384.00
2017-10-13T09:48:39.055Z,37344.00
2017-10-13T09:49:39.046Z,46976.00
2017-10-13T09:50:39.031Z,44224.00
2017-10-13T09:51:39.018Z,19328.00
2017-10-13T09:52:39.006Z,44224.00
2017-10-13T09:53:38.994Z,51744.00
2017-10-13T09:54:38.983Z,48096.00
2017-10-13T09:55:38.970Z,50272.00
2017-10-13T09:56:38.962Z,42432.00
2017-10-13T09:57:38.946Z,48928.00
2017-10-13T10:03:00.082Z,47936.00
2017-10-13T10:04:00.069Z,54144.00
2017-10-13T10:05:00.058Z,53312.00
2017-10-13T10:06:00.047Z,44576.00
2017-10-13T10:07:00.035Z,50144.00
2017-10-13T10:08:00.022Z,27776.00
2017-10-13T10:09:00.024Z,51520.00
2017-10-13T10:10:00.000Z,7652.00
2017-10-13T10:10:59.988Z,42592.00
2017-10-13T10:11:59.977Z,39040.00
2017-10-13T10:12:59.966Z,27360.00
2017-10-13T10:13:59.954Z,50848.00
2017-10-13T10:14:59.942Z,51968.00
2017-10-13T10:15:59.930Z,47808.00
2017-10-13T10:16:59.920Z,49504.00
2017-10-13T10:17:59.909Z,46816.00
2017-10-13T10:18:59.897Z,45248.00
2017-10-13T10:19:59.891Z,33952.00
2017-10-13T10:20:59.873Z,39584.00
2017-10-13T10:21:59.863Z,37376.00
2017-10-13T10:22:59.851Z,48352.00
2017-10-13T10:23:59.841Z,11444.00
2017-10-13T10:24:59.830Z,12944.00
2017-10-13T10:25:59.821Z,49600.00
2017-10-13T10:26:59.806Z,20640.00
2017-10-13T10:27:59.796Z,33056.00
2017-10-13T10:28:59.786Z,20224.00
2017-10-13T10:29:59.774Z,48608.00
2017-10-13T10:30:59.766Z,45664.00
2017-10-13T10:31:59.749Z,20352.00
2017-10-13T10:32:59.739Z,26944.00
2017-10-13T10:33:59.731Z,10960.00
2017-10-13T10:34:59.719Z,29536.00
2017-10-13T10:35:59.742Z,28096.00
2017-10-13T10:36:59.694Z,22560.00
2017-10-13T10:37:59.683Z,20736.00
2017-10-13T10:38:59.671Z,8312.00
2017-10-13T10:39:59.661Z,19488.00
2017-10-13T10:40:59.650Z,9352.00
2017-10-13T10:41:59.647Z,9644.00
2017-10-13T10:42:59.662Z,39744.00
2017-10-13T10:43:59.615Z,47392.00
2017-10-13T10:44:59.604Z,9752.00
2017-10-13T10:45:59.591Z,41408.00
2017-10-13T10:46:59.584Z,25120.00
2017-10-13T10:47:59.568Z,26368.00
2017-10-13T10:48:59.557Z,38624.00
2017-10-13T10:49:59.548Z,43392.00
2017-10-13T10:50:59.534Z,44576.00
2017-10-13T10:51:59.524Z,45408.00
2017-10-13T10:52:59.511Z,49280.00
2017-10-13T10:53:59.502Z,42304.00
2017-10-13T10:54:59.496Z,40864.00
2017-10-13T10:55:59.478Z,48800.00
2017-10-13T10:56:59.466Z,45376.00
2017-10-13T10:57:59.455Z,47520.00
2017-10-13T10:58:59.444Z,49632.00
2017-10-13T10:59:59.436Z,38080.00
2017-10-13T11:00:59.422Z,46336.00
2017-10-13T11:01:59.412Z,46528.00
2017-10-13T11:02:59.401Z,45216.00
2017-10-13T11:03:59.388Z,56864.00
2017-10-13T11:04:59.378Z,52544.00
2017-10-13T11:05:59.368Z,20608.00
2017-10-13T11:06:59.356Z,7784.00
2017-10-13T11:07:59.346Z,49312.00
2017-10-13T11:08:59.334Z,22240.00
2017-10-13T11:09:59.324Z,19392.00
2017-10-13T11:10:59.313Z,8632.00
2017-10-13T11:11:59.305Z,7036.00
2017-10-13T11:12:59.291Z,51392.00
2017-10-13T11:13:59.283Z,9176.00
2017-10-13T11:14:59.270Z,9516.00
2017-10-13T11:15:59.260Z,6360.00
2017-10-13T11:16:59.248Z,4628.00
2017-10-13T11:17:59.239Z,8380.00
2017-10-13T11:18:59.225Z,54016.00
2017-10-13T11:19:59.216Z,55840.00
2017-10-13T11:20:59.204Z,53216.00
2017-10-13T11:21:59.193Z,51488.00
2017-10-13T11:22:59.182Z,34464.00
2017-10-13T11:23:59.171Z,53952.00
2017-10-13T11:24:59.168Z,58976.00
2017-10-13T11:25:59.149Z,54624.00
2017-10-13T11:26:59.137Z,58688.00
2017-10-13T11:27:59.127Z,54656.00
2017-10-13T11:28:59.117Z,51296.00
2017-10-13T11:29:59.106Z,55200.00
2017-10-13T11:30:59.094Z,49856.00
2017-10-13T11:31:59.085Z,57056.00
2017-10-13T11:32:59.074Z,47936.00
2017-10-13T11:33:59.062Z,50912.00
2017-10-13T11:34:59.051Z,53440.00
2017-10-13T11:35:59.041Z,49280.00
2017-10-13T11:36:59.036Z,46112.00
2017-10-13T11:37:59.021Z,56096.00
2017-10-13T11:38:59.009Z,50688.00
2017-10-13T11:39:59.003Z,51520.00
2017-10-13T11:40:58.990Z,56416.00
2017-10-13T11:41:58.980Z,49120.00
2017-10-13T11:42:58.969Z,48768.00
2017-10-13T11:43:58.959Z,52160.00
2017-10-13T11:44:58.948Z,44768.00
2017-10-13T11:45:58.939Z,51520.00
2017-10-13T11:46:58.929Z,52416.00
2017-10-13T11:47:58.919Z,51840.00
2017-10-13T11:48:58.909Z,50112.00
2017-10-13T11:49:58.903Z,38080.00
2017-10-13T11:50:58.890Z,50144.00
2017-10-13T11:51:58.899Z,51744.00
2017-10-13T11:52:58.869Z,46176.00
2017-10-13T11:53:58.860Z,47616.00
2017-10-13T11:54:58.849Z,46944.00
2017-10-13T11:55:58.840Z,43840.00
2017-10-13T11:56:58.829Z,41664.00
2017-10-13T11:57:58.821Z,44128.00
2017-10-13T11:58:58.809Z,43360.00
2017-10-13T11:59:58.801Z,41408.00
2017-10-13T12:00:58.790Z,40480.00
2017-10-13T12:01:58.782Z,37696.00
2017-10-13T12:02:58.770Z,22336.00
2017-10-13T12:03:58.761Z,39392.00
2017-10-13T12:04:58.751Z,37632.00
2017-10-13T12:05:58.743Z,37152.00
2017-10-13T12:06:58.731Z,36896.00
2017-10-13T12:07:58.727Z,37248.00
2017-10-13T12:08:58.713Z,35616.00
2017-10-13T12:09:58.704Z,33184.00
2017-10-13T12:10:58.692Z,36544.00
2017-10-13T12:11:58.684Z,37568.00
2017-10-13T12:12:58.672Z,29632.00
2017-10-13T12:13:58.663Z,32192.00
2017-10-13T12:14:58.652Z,13112.00
2017-10-13T12:15:58.643Z,31456.00
2017-10-13T12:16:58.633Z,33856.00
2017-10-13T12:17:58.623Z,30400.00
2017-10-13T12:18:58.612Z,28832.00
2017-10-13T12:19:58.602Z,27584.00
2017-10-13T12:20:58.593Z,27520.00
2017-10-13T12:21:58.597Z,30112.00
2017-10-13T12:22:58.573Z,31744.00
2017-10-13T12:23:58.563Z,9600.00
2017-10-13T12:24:58.551Z,16128.00
2017-10-13T12:25:58.547Z,11432.00
2017-10-13T12:26:58.530Z,19456.00
2017-10-13T12:27:58.521Z,31584.00
2017-10-13T12:28:58.510Z,40512.00
2017-10-13T12:29:58.507Z,32480.00
2017-10-13T12:30:58.490Z,34144.00
2017-10-13T12:31:58.479Z,32256.00
2017-10-13T12:32:58.471Z,30624.00
2017-10-13T12:33:58.465Z,8176.00
2017-10-13T12:34:58.450Z,11000.00
2017-10-13T12:35:58.439Z,11348.00
2017-10-13T12:36:58.429Z,15360.00
2017-10-13T12:37:58.418Z,21792.00
2017-10-13T12:38:58.409Z,31264.00
2017-10-13T12:39:58.396Z,22240.00
2017-10-13T12:40:58.387Z,28192.00
2017-10-13T12:41:58.377Z,27872.00